createdAt,value
2022-09-21T00:01:40.355Z,101888.06
2022-09-21T00:04:06.861Z,101881.34
2022-09-21T00:06:34.586Z,101877.38
2022-09-21T00:09:03.886Z,101883.91
2022-09-21T00:11:32.098Z,101876.69
2022-09-21T00:14:05.469Z,101886.47
2022-09-21T00:16:32.212Z,101876.69
2022-09-21T00:18:59.423Z,101882.19
2022-09-21T00:21:28.114Z,101888.38
2022-09-21T00:23:55.009Z,101884.75
2022-09-21T00:26:23.982Z,101880.13
2022-09-21T00:28:55.339Z,101883.53
2022-09-21T00:31:22.597Z,101884.59
2022-09-21T00:33:51.061Z,101889.41
2022-09-21T00:36:19.406Z,101887.69
2022-09-21T00:38:50.275Z,101890.63
2022-09-21T00:41:16.762Z,101888.06
2022-09-21T00:43:48.361Z,101887.19
2022-09-21T00:46:25.324Z,101892.19
2022-09-21T00:48:51.771Z,101893.59
2022-09-21T00:51:18.496Z,101908.19
2022-09-21T00:53:46.460Z,101900.50
2022-09-21T00:56:15.403Z,101901.34
2022-09-21T00:58:47.847Z,101898.28
2022-09-21T01:01:18.069Z,101905.28
2022-09-21T01:03:46.581Z,101896.84
2022-09-21T01:06:14.722Z,101908.69
2022-09-21T01:08:42.555Z,101912.50
2022-09-21T01:11:18.135Z,101906.81
2022-09-21T01:17:06.479Z,101902.91
2022-09-21T01:19:45.731Z,101900.81
2022-09-21T01:22:30.345Z,101909.06
2022-09-21T01:25:27.919Z,101916.66
2022-09-21T01:28:07.920Z,101909.06
2022-09-21T01:30:38.620Z,101912.31
2022-09-21T01:33:14.204Z,101912.84
2022-09-21T01:36:04.508Z,101911.16
2022-09-21T01:38:43.275Z,101914.56
2022-09-21T01:41:13.639Z,101911.44
2022-09-21T01:43:47.969Z,101921.25
2022-09-21T01:46:18.801Z,101919.00
2022-09-21T01:48:50.257Z,101909.69
2022-09-21T01:51:20.285Z,101913.97
2022-09-21T01:53:59.078Z,101911.41
2022-09-21T01:56:35.979Z,101911.78
2022-09-21T01:59:13.377Z,101916.25
2022-09-21T02:01:47.352Z,101906.09
2022-09-21T02:04:14.240Z,101914.16
2022-09-21T02:06:46.975Z,101911.03
2022-09-21T02:09:14.190Z,101916.72
2022-09-21T02:11:43.879Z,101915.66
2022-09-21T02:14:18.137Z,101910.84
2022-09-21T02:17:03.447Z,101910.00
2022-09-21T02:19:54.296Z,101920.34
2022-09-21T02:22:40.865Z,101917.94
2022-09-21T02:25:18.180Z,101919.00
2022-09-21T02:27:56.870Z,101921.03
2022-09-21T02:30:25.293Z,101913.81
2022-09-21T02:33:10.471Z,101916.78
2022-09-21T02:36:02.025Z,101916.78
2022-09-21T02:38:41.366Z,101913.53
2022-09-21T02:41:13.781Z,101914.56
2022-09-21T02:43:47.439Z,101912.50
2022-09-21T02:46:19.250Z,101914.19
2022-09-21T02:48:54.057Z,101910.41
2022-09-21T02:51:30.896Z,101907.66
2022-09-21T02:54:01.154Z,101913.81
2022-09-21T02:56:30.603Z,101904.91
2022-09-21T02:59:01.324Z,101901.13
2022-09-21T03:01:28.861Z,101908.53
2022-09-21T03:03:55.545Z,101901.13
2022-09-21T03:06:21.956Z,101902.81
2022-09-21T03:08:48.763Z,101900.94
2022-09-21T03:11:19.632Z,101903.88
2022-09-21T03:13:46.568Z,101898.56
2022-09-21T03:16:13.585Z,101911.28
2022-09-21T03:18:40.305Z,101904.44
2022-09-21T03:21:06.917Z,101906.50
2022-09-21T03:23:33.370Z,101912.19
2022-09-21T03:25:59.745Z,101912.19
2022-09-21T03:28:26.632Z,101911.16
2022-09-21T03:30:53.085Z,101905.66
2022-09-21T03:33:20.495Z,101916.16
2022-09-21T03:35:50.291Z,101914.94
2022-09-21T03:38:17.656Z,101915.97
2022-09-21T03:40:48.147Z,101917.69
2022-09-21T03:43:15.373Z,101916.66
2022-09-21T03:45:42.623Z,101917.50
2022-09-21T03:48:11.280Z,101915.59
2022-09-21T03:50:38.675Z,101920.06
2022-09-21T03:53:05.681Z,101920.25
2022-09-21T03:55:33.118Z,101920.44
2022-09-21T03:58:00.603Z,101915.97
2022-09-21T04:00:27.544Z,101916.31
2022-09-21T04:02:54.313Z,101923.53
2022-09-21T04:05:20.941Z,101921.16
2022-09-21T04:07:47.979Z,101921.50
2022-09-21T04:10:17.478Z,101923.22
2022-09-21T04:12:45.320Z,101918.94
2022-09-21T04:15:19.480Z,101922.56
2022-09-21T04:17:46.625Z,101921.50
2022-09-21T04:20:12.998Z,101918.75
2022-09-21T04:22:43.351Z,101919.44
2022-09-21T04:25:12.637Z,101913.94
2022-09-21T04:27:39.748Z,101922.34
2022-09-21T04:30:06.973Z,101916.38
2022-09-21T04:32:33.336Z,101921.69
2022-09-21T04:34:59.675Z,101923.59
2022-09-21T04:37:26.081Z,101922.56
2022-09-21T04:39:52.513Z,101925.09
2022-09-21T04:42:19.258Z,101926.16
2022-09-21T04:44:45.812Z,101926.34
2022-09-21T04:47:12.329Z,101931.84
2022-09-21T04:49:38.790Z,101939.38
2022-09-21T04:52:05.523Z,101938.72
2022-09-21T04:54:31.923Z,101939.75
2022-09-21T04:56:58.361Z,101942.50
2022-09-21T04:59:24.756Z,101943.72
2022-09-21T05:01:51.171Z,101951.47
2022-09-21T05:04:17.571Z,101962.81
2022-09-21T05:06:43.991Z,101954.75
2022-09-21T05:09:29.018Z,101960.78
2022-09-21T05:11:55.716Z,101962.84
2022-09-21T05:14:22.109Z,101956.50
2022-09-21T05:16:49.717Z,101958.75
2022-09-21T05:19:17.259Z,101979.00
2022-09-21T05:21:43.804Z,101968.56
2022-09-21T05:24:10.303Z,101978.84
2022-09-21T05:26:36.674Z,101982.81
2022-09-21T05:29:03.396Z,101981.09
2022-09-21T05:31:39.347Z,101982.81
2022-09-21T05:34:20.763Z,101983.69
2022-09-21T05:37:05.943Z,101979.38
2022-09-21T05:39:32.576Z,101981.81
2022-09-21T05:41:59.239Z,101979.75
2022-09-21T05:44:26.032Z,101983.19
2022-09-21T05:47:12.127Z,101983.19
2022-09-21T05:50:03.175Z,101985.72
2022-09-21T05:52:47.150Z,101988.31
2022-09-21T05:55:33.750Z,101991.72
2022-09-21T05:58:21.497Z,101990.53
2022-09-21T06:01:15.696Z,101986.75
2022-09-21T06:03:43.223Z,101999.63
2022-09-21T06:06:10.136Z,101991.06
2022-09-21T06:08:36.535Z,101992.75
2022-09-21T06:11:02.983Z,101996.00
2022-09-21T06:13:29.345Z,102005.94
2022-09-21T06:15:55.741Z,102008.53
2022-09-21T06:18:22.103Z,102002.69
2022-09-21T06:20:48.533Z,102005.06
2022-09-21T06:23:15.567Z,102001.47
2022-09-21T06:25:42.000Z,102010.41
2022-09-21T06:28:10.990Z,102004.53
2022-09-21T06:30:39.033Z,102010.91
2022-09-21T06:33:07.000Z,102008.81
2022-09-21T06:35:34.975Z,102012.25
2022-09-21T06:38:03.793Z,102012.75
2022-09-21T06:40:33.151Z,102006.91
2022-09-21T06:43:01.119Z,102011.19
2022-09-21T06:45:29.238Z,102008.75
2022-09-21T06:47:55.959Z,102013.91
2022-09-21T06:50:23.303Z,102016.97
2022-09-21T06:52:49.808Z,102008.16
2022-09-21T06:55:16.319Z,102018.84
2022-09-21T06:57:43.593Z,102009.16
2022-09-21T07:00:12.685Z,102010.50
2022-09-21T07:02:42.880Z,102016.50
2022-09-21T07:05:09.309Z,102014.44
2022-09-21T07:07:36.412Z,102018.34
2022-09-21T07:10:05.547Z,102015.75
2022-09-21T07:12:34.588Z,102017.56
2022-09-21T07:15:02.154Z,102014.97
2022-09-21T07:17:36.471Z,102015.09
2022-09-21T07:20:04.485Z,102018.19
2022-09-21T07:22:32.177Z,102013.19
2022-09-21T07:24:58.800Z,102020.69
2022-09-21T07:27:26.507Z,102017.19
2022-09-21T07:29:52.923Z,102011.84
2022-09-21T07:32:19.889Z,102017.84
2022-09-21T07:34:46.633Z,102017.47
2022-09-21T07:37:13.843Z,102014.97
2022-09-21T07:39:40.621Z,102018.91
2022-09-21T07:42:07.303Z,102017.66
2022-09-21T07:44:34.219Z,102020.25
2022-09-21T07:47:02.240Z,102013.88
2022-09-21T07:49:28.799Z,102024.16
2022-09-21T07:51:55.211Z,102016.19
2022-09-21T07:54:21.613Z,102008.41
2022-09-21T07:57:07.946Z,102017.16
2022-09-21T07:59:34.324Z,102022.28
2022-09-21T08:02:00.767Z,102018.13
2022-09-21T08:04:27.291Z,102020.50
2022-09-21T08:06:53.745Z,102022.69
2022-09-21T08:09:20.177Z,102024.03
2022-09-21T08:11:47.005Z,102022.41
2022-09-21T08:14:23.829Z,102021.84
2022-09-21T08:16:52.542Z,102026.31
2022-09-21T08:19:19.247Z,102036.50
2022-09-21T08:21:51.471Z,102032.13
2022-09-21T08:24:21.463Z,102029.72
2022-09-21T08:26:49.854Z,102035.81
2022-09-21T08:29:16.268Z,102037.81
2022-09-21T08:31:43.238Z,102042.06
2022-09-21T08:34:09.806Z,102039.16
2022-09-21T08:36:36.235Z,102037.25
2022-09-21T08:39:02.671Z,102034.88
2022-09-21T08:41:47.848Z,102032.41
2022-09-21T08:44:19.453Z,102034.50
2022-09-21T08:47:02.401Z,102032.78
2022-09-21T08:49:31.054Z,102032.31
2022-09-21T08:52:04.153Z,102037.34
2022-09-21T08:54:52.931Z,102043.25
2022-09-21T08:57:20.361Z,102035.94
2022-09-21T08:59:49.117Z,102029.84
2022-09-21T09:02:27.499Z,102043.66
2022-09-21T09:05:20.593Z,102035.16
2022-09-21T09:08:04.939Z,102041.72
2022-09-21T09:10:37.799Z,102036.41
2022-09-21T09:13:21.292Z,102029.63
2022-09-21T09:16:00.163Z,102026.00
2022-09-21T09:18:49.249Z,102034.03
2022-09-21T09:21:31.926Z,102034.69
2022-09-21T09:24:25.037Z,102028.44
2022-09-21T09:27:17.806Z,102033.00
2022-09-21T09:29:58.381Z,102028.03
2022-09-21T09:32:45.833Z,102023.78
2022-09-21T09:35:36.641Z,102026.50
2022-09-21T09:38:15.275Z,102027.91
2022-09-21T09:40:50.158Z,102024.56
2022-09-21T09:43:40.194Z,102012.06
2022-09-21T09:46:20.561Z,102014.34
2022-09-21T09:49:18.340Z,102008.59
2022-09-21T09:51:46.009Z,102009.91
2022-09-21T09:54:15.875Z,102008.13
2022-09-21T09:56:42.730Z,102011.13
2022-09-21T09:59:18.773Z,101997.91
2022-09-21T10:01:47.193Z,101993.59
2022-09-21T10:04:17.380Z,101988.09
2022-09-21T10:06:46.762Z,101990.72
2022-09-21T10:09:25.620Z,101979.59
2022-09-21T10:11:54.582Z,101978.09
2022-09-21T10:14:23.809Z,101975.09
2022-09-21T10:16:52.132Z,101968.19
2022-09-21T10:19:23.138Z,101969.88
2022-09-21T10:21:57.632Z,101963.16
2022-09-21T10:24:28.374Z,101965.03
2022-09-21T10:27:02.106Z,101965.94
2022-09-21T10:29:30.234Z,101950.47
2022-09-21T10:32:16.735Z,101949.88
2022-09-21T10:35:12.195Z,101949.53
2022-09-21T10:37:44.176Z,101951.06
2022-09-21T10:40:19.345Z,101952.38
2022-09-21T10:42:47.506Z,101942.56
2022-09-21T10:45:19.387Z,101941.03
2022-09-21T10:47:55.168Z,101936.84
2022-09-21T10:50:29.057Z,101933.00
2022-09-21T10:53:00.162Z,101930.28
2022-09-21T10:55:28.991Z,101923.56
2022-09-21T10:57:55.673Z,101919.63
2022-09-21T11:00:25.165Z,101916.44
2022-09-21T11:02:54.864Z,101914.78
2022-09-21T11:05:28.435Z,101903.28
2022-09-21T11:08:11.657Z,101904.28
2022-09-21T11:10:53.005Z,101911.91
2022-09-21T11:13:38.753Z,101909.13
2022-09-21T11:16:22.062Z,101909.38
2022-09-21T11:19:00.824Z,101904.50
2022-09-21T11:21:40.585Z,101899.72
2022-09-21T11:24:53.416Z,101896.72
2022-09-21T11:27:23.204Z,101900.88
2022-09-21T11:30:03.381Z,101883.81
2022-09-21T11:32:54.828Z,101876.94
2022-09-21T11:35:49.271Z,101879.13
2022-09-21T11:38:57.387Z,101869.78
2022-09-21T11:41:42.546Z,101870.66
2022-09-21T11:44:20.135Z,101862.97
2022-09-21T11:46:59.404Z,101866.69
2022-09-21T11:49:51.934Z,101861.22
2022-09-21T11:52:51.140Z,101865.72
2022-09-21T11:55:36.433Z,101848.50
2022-09-21T11:58:30.301Z,101851.06
2022-09-21T12:01:36.742Z,101851.03
2022-09-21T12:04:41.667Z,101848.97
2022-09-21T12:07:30.308Z,101840.56
2022-09-21T12:10:10.911Z,101836.41
2022-09-21T12:12:46.256Z,101839.97
2022-09-21T12:15:38.142Z,101838.00
2022-09-21T12:18:14.644Z,101830.13
2022-09-21T12:20:46.711Z,101828.66
2022-09-21T12:23:34.921Z,101828.53
2022-09-21T12:26:02.113Z,101833.53
2022-09-21T12:28:50.735Z,101820.03
2022-09-21T12:31:25.701Z,101813.66
2022-09-21T12:34:09.967Z,101813.31
2022-09-21T12:36:42.661Z,101807.25
2022-09-21T12:39:29.236Z,101804.00
2022-09-21T12:42:11.915Z,101802.97
2022-09-21T12:44:53.111Z,101798.19
2022-09-21T12:47:28.161Z,101797.06
2022-09-21T12:50:02.129Z,101788.94
2022-09-21T12:52:28.891Z,101788.94
2022-09-21T12:55:08.641Z,101787.56
2022-09-21T12:57:58.793Z,101781.66
2022-09-21T13:00:41.023Z,101778.28
2022-09-21T13:03:19.213Z,101776.56
2022-09-21T13:06:23.767Z,101770.69
2022-09-21T13:08:51.328Z,101779.97
2022-09-21T13:11:21.613Z,101783.53
2022-09-21T13:13:52.851Z,101768.56
2022-09-21T13:16:31.514Z,101774.22
2022-09-21T13:19:04.806Z,101768.56
2022-09-21T13:21:33.340Z,101782.59
2022-09-21T13:24:06.093Z,101763.03
2022-09-21T13:26:39.409Z,101765.31
2022-09-21T13:29:18.934Z,101757.47
2022-09-21T13:32:17.470Z,101751.84
2022-09-21T13:34:45.245Z,101752.94
2022-09-21T13:37:11.571Z,101749.81
2022-09-21T13:40:03.086Z,101742.44
2022-09-21T13:42:29.491Z,101742.69
2022-09-21T13:45:23.973Z,101737.47
2022-09-21T13:47:54.203Z,101737.47
2022-09-21T13:50:38.872Z,101730.13
2022-09-21T13:53:28.432Z,101733.72
2022-09-21T13:56:00.711Z,101729.31
2022-09-21T13:58:32.135Z,101731.00
2022-09-21T14:01:01.719Z,101725.63
2022-09-21T14:03:30.916Z,101726.22
2022-09-21T14:06:08.551Z,101741.31
2022-09-21T14:08:49.329Z,101727.34
2022-09-21T14:11:22.333Z,101727.63
2022-09-21T14:14:04.399Z,101719.44
2022-09-21T14:16:33.864Z,101720.88
2022-09-21T14:19:29.609Z,101726.50
2022-09-21T14:22:16.283Z,101735.34
2022-09-21T14:24:44.898Z,101730.75
2022-09-21T14:27:45.740Z,101731.34
2022-09-21T14:30:24.169Z,101737.38
2022-09-21T14:33:12.563Z,101739.22
2022-09-21T14:35:43.921Z,101731.34
2022-09-21T14:38:35.026Z,101729.13
2022-09-21T14:41:07.632Z,101732.97
2022-09-21T14:43:36.891Z,101725.25
2022-09-21T14:46:37.235Z,101725.94
2022-09-21T14:49:32.835Z,101725.16
2022-09-21T14:52:31.334Z,101721.94
2022-09-21T14:55:17.221Z,101718.13
2022-09-21T14:58:05.535Z,101711.41
2022-09-21T15:00:45.020Z,101711.25
2022-09-21T15:03:45.691Z,101706.44
2022-09-21T15:06:55.047Z,101692.53
2022-09-21T15:10:19.685Z,101683.66
2022-09-21T15:12:56.712Z,101689.91
2022-09-21T15:16:17.670Z,101677.28
2022-09-21T15:18:51.301Z,101682.84
2022-09-21T15:21:27.979Z,101679.75
2022-09-21T15:23:55.057Z,101678.03
2022-09-21T15:26:26.433Z,101668.09
2022-09-21T15:29:09.247Z,101668.00
2022-09-21T15:31:41.910Z,101672.19
2022-09-21T15:34:11.023Z,101667.72
2022-09-21T15:36:40.364Z,101668.41
2022-09-21T15:39:20.556Z,101672.13
2022-09-21T15:41:48.919Z,101667.13
2022-09-21T15:44:22.895Z,101681.47
2022-09-21T15:47:00.101Z,101674.75
2022-09-21T15:49:29.656Z,101672.16
2022-09-21T15:52:02.568Z,101677.97
2022-09-21T15:54:35.706Z,101667.81
2022-09-21T15:57:24.430Z,101674.44
2022-09-21T15:59:51.471Z,101672.31
2022-09-21T16:02:22.492Z,101672.50
2022-09-21T16:04:51.535Z,101666.44
2022-09-21T16:07:33.089Z,101674.72
2022-09-21T16:10:00.936Z,101674.88
2022-09-21T16:12:46.373Z,101673.56
2022-09-21T16:15:25.951Z,101669.97
2022-09-21T16:18:05.147Z,101673.16
2022-09-21T16:21:07.333Z,101674.13
2022-09-21T16:23:33.761Z,101673.97
2022-09-21T16:26:01.552Z,101674.19
2022-09-21T16:28:44.511Z,101671.00
2022-09-21T16:31:29.883Z,101674.91
2022-09-21T16:34:07.325Z,101674.81
2022-09-21T16:36:37.861Z,101674.84
2022-09-21T16:39:12.816Z,101669.50
2022-09-21T16:41:47.275Z,101673.09
2022-09-21T16:44:20.931Z,101677.47
2022-09-21T16:46:51.391Z,101677.38
2022-09-21T16:49:19.838Z,101676.44
2022-09-21T16:51:48.322Z,101676.53
2022-09-21T16:54:18.672Z,101671.56
2022-09-21T16:56:46.311Z,101674.66
2022-09-21T16:59:16.268Z,101685.03
2022-09-21T17:01:49.375Z,101684.16
2022-09-21T17:04:19.929Z,101686.00
2022-09-21T17:06:46.501Z,101682.50
2022-09-21T17:09:29.190Z,101685.97
2022-09-21T17:11:59.254Z,101681.00
2022-09-21T17:14:25.710Z,101693.25
2022-09-21T17:16:54.748Z,101698.66
2022-09-21T17:19:21.663Z,101693.78
2022-09-21T17:21:48.475Z,101699.00
2022-09-21T17:24:32.768Z,101704.25
2022-09-21T17:27:02.593Z,101722.84
2022-09-21T17:29:30.019Z,101711.81
2022-09-21T17:31:58.155Z,101712.50
2022-09-21T17:34:26.967Z,101709.31
2022-09-21T17:36:54.687Z,101715.00
2022-09-21T17:39:22.798Z,101722.44
2022-09-21T17:41:58.016Z,101718.94
2022-09-21T17:44:27.361Z,101716.44
2022-09-21T17:46:59.175Z,101733.78
2022-09-21T17:49:25.983Z,101724.16
2022-09-21T17:52:11.156Z,101723.88
2022-09-21T17:54:39.877Z,101734.31
2022-09-21T17:57:43.868Z,101733.16
2022-09-21T18:00:19.343Z,101740.75
2022-09-21T18:02:46.626Z,101740.63
2022-09-21T18:05:25.709Z,101739.81
2022-09-21T18:07:52.983Z,101746.06
2022-09-21T18:10:21.496Z,101746.97
2022-09-21T18:12:50.624Z,101755.75
2022-09-21T18:15:36.590Z,101751.50
2022-09-21T18:18:11.959Z,101753.69
2022-09-21T18:21:02.284Z,101763.69
2022-09-21T18:23:29.268Z,101762.44
2022-09-21T18:25:57.164Z,101765.22
2022-09-21T18:28:40.907Z,101769.06
2022-09-21T18:31:30.077Z,101773.97
2022-09-21T18:34:42.287Z,101771.19
2022-09-21T18:37:42.691Z,101774.84
2022-09-21T18:40:58.142Z,101764.81
2022-09-21T18:43:48.887Z,101772.47
2022-09-21T18:46:36.834Z,101779.28
2022-09-21T18:49:29.009Z,101780.31
2022-09-21T18:52:07.250Z,101782.19
2022-09-21T18:54:33.905Z,101782.41
2022-09-21T18:57:00.742Z,101786.84
2022-09-21T18:59:31.690Z,101798.72
2022-09-21T19:01:59.691Z,101791.47
2022-09-21T19:04:26.606Z,101786.09
2022-09-21T19:07:08.548Z,101794.38
2022-09-21T19:09:56.668Z,101797.50
2022-09-21T19:12:49.246Z,101795.53
2022-09-21T19:16:01.302Z,101796.56
2022-09-21T19:19:06.122Z,101798.00
2022-09-21T19:22:04.585Z,101801.78
2022-09-21T19:24:49.991Z,101799.16
2022-09-21T19:27:26.027Z,101802.75
2022-09-21T19:30:04.500Z,101806.97
2022-09-21T19:32:43.750Z,101805.66
2022-09-21T19:35:18.981Z,101799.88
2022-09-21T19:37:47.189Z,101803.44
2022-09-21T19:40:19.541Z,101802.13
2022-09-21T19:43:21.596Z,101816.75
2022-09-21T19:45:50.829Z,101803.72
2022-09-21T19:48:20.475Z,101812.59
2022-09-21T19:50:57.089Z,101805.31
2022-09-21T19:53:42.807Z,101799.91
2022-09-21T19:56:34.035Z,101802.59
2022-09-21T19:59:19.749Z,101800.63
2022-09-21T20:01:53.667Z,101800.19
2022-09-21T20:04:55.985Z,101800.56
2022-09-21T20:07:30.349Z,101800.13
2022-09-21T20:10:07.544Z,101803.47
2022-09-21T20:12:54.120Z,101800.41
2022-09-21T20:15:34.212Z,101802.53
2022-09-21T20:18:09.619Z,101806.72
2022-09-21T20:20:36.089Z,101809.22
2022-09-21T20:23:02.881Z,101808.97
2022-09-21T20:25:37.607Z,101808.28
2022-09-21T20:28:04.621Z,101801.09
2022-09-21T20:30:34.640Z,101800.63
2022-09-21T20:33:16.032Z,101800.97
2022-09-21T20:35:43.816Z,101798.44
2022-09-21T20:38:11.215Z,101808.59
2022-09-21T20:40:39.661Z,101805.00
2022-09-21T20:43:07.836Z,101808.13
2022-09-21T20:45:35.392Z,101807.47
2022-09-21T20:48:13.101Z,101804.25
2022-09-21T20:50:48.867Z,101807.59
2022-09-21T20:53:15.686Z,101810.47
2022-09-21T20:55:43.970Z,101810.00
2022-09-21T20:58:13.244Z,101806.19
2022-09-21T21:00:39.978Z,101808.47
2022-09-21T21:03:06.481Z,101815.03
2022-09-21T21:05:32.927Z,101812.66
2022-09-21T21:07:59.808Z,101812.00
2022-09-21T21:10:26.217Z,101812.38
2022-09-21T21:12:52.633Z,101814.44
2022-09-21T21:15:19.042Z,101818.28
2022-09-21T21:17:47.081Z,101821.41
2022-09-21T21:20:13.760Z,101821.31
2022-09-21T21:22:40.186Z,101811.72
2022-09-21T21:25:06.959Z,101814.19
2022-09-21T21:27:33.333Z,101817.34
2022-09-21T21:30:00.273Z,101819.63
2022-09-21T21:32:26.783Z,101823.41
2022-09-21T21:34:54.521Z,101818.28
2022-09-21T21:37:24.315Z,101822.44
2022-09-21T21:39:51.575Z,101822.53
2022-09-21T21:42:18.520Z,101825.66
2022-09-21T21:44:46.705Z,101828.97
2022-09-21T21:47:38.839Z,101827.13
2022-09-21T21:50:00.794Z,101828.91
2022-09-21T21:52:27.261Z,101825.50
2022-09-21T21:54:53.663Z,101823.97
2022-09-21T21:57:20.476Z,101826.94
2022-09-21T21:59:46.906Z,101829.19
2022-09-21T22:02:13.331Z,101824.25
2022-09-21T22:04:39.790Z,101823.38
2022-09-21T22:07:06.182Z,101826.31
2022-09-21T22:09:33.027Z,101817.78
2022-09-21T22:12:00.948Z,101827.06
2022-09-21T22:14:28.213Z,101826.41
2022-09-21T22:16:54.702Z,101822.31
2022-09-21T22:19:21.150Z,101819.56
2022-09-21T22:21:53.230Z,101817.00
2022-09-21T22:24:21.224Z,101823.91
2022-09-21T22:26:48.590Z,101824.09
2022-09-21T22:29:16.952Z,101820.00
2022-09-21T22:31:46.612Z,101814.84
2022-09-21T22:34:14.530Z,101819.31
2022-09-21T22:36:43.548Z,101811.44
2022-09-21T22:39:10.849Z,101817.31
2022-09-21T22:41:39.527Z,101813.88
2022-09-21T22:44:06.718Z,101811.88
2022-09-21T22:46:33.629Z,101812.41
2022-09-21T22:49:00.600Z,101825.66
2022-09-21T22:51:28.245Z,101810.22
2022-09-21T22:53:54.678Z,101802.16
2022-09-21T22:56:25.491Z,101813.16
2022-09-21T22:58:54.568Z,101814.19
2022-09-21T23:01:27.044Z,101810.94
2022-09-21T23:03:58.556Z,101806.31
2022-09-21T23:06:28.116Z,101809.91
2022-09-21T23:08:57.066Z,101810.28
2022-09-21T23:11:32.525Z,101800.69
2022-09-21T23:13:59.748Z,101808.63
2022-09-21T23:16:28.464Z,101808.13
2022-09-21T23:18:55.905Z,101805.56
2022-09-21T23:21:24.736Z,101809.38
2022-09-21T23:23:59.801Z,101808.66
2022-09-21T23:26:28.321Z,101810.06
2022-09-21T23:29:01.008Z,101807.03
2022-09-21T23:31:28.619Z,101802.59
2022-09-21T23:33:57.152Z,101804.69
2022-09-21T23:36:29.300Z,101806.56
2022-09-21T23:38:56.497Z,101811.56
2022-09-21T23:41:28.199Z,101809.84
2022-09-21T23:43:55.500Z,101799.06
2022-09-21T23:46:29.132Z,101810.22
2022-09-21T23:48:57.018Z,101805.75
2022-09-21T23:51:24.139Z,101809.56
2022-09-21T23:53:51.124Z,101810.38
2022-09-21T23:56:21.983Z,101819.69
2022-09-21T23:58:49.647Z,101817.78
